Terminal Aerodrome Forecast
Issued by NWS

Home | Current Version | Previous Version | Text Only | Print | Product List | Glossary On
Versions: 1 2 3 4 5 6 7 8 9 10 11 12 13 14 15 16 17 18 19 20 21 22 23 24 25 26 27 28 29 30 31 32 33 34 35 36 37
000
FTUS46 KLOX 251446 AAA
TAFLAX
TAF AMD
KLAX 251446Z 2515/2618 00000KT P6SM FEW005
     FM251700 27007KT 6SM HZ SCT008
     FM252000 26011KT P6SM SKC
     FM260300 25007KT P6SM SKC
     FM261000 VRB03KT P6SM VCFG SCT006
     FM261300 VRB03KT 6SM BR VCFG SCT004
     FM261700 27007KT 6SM HZ SCT008=

USA.gov is the U.S. government's official web portal to all federal, state and local government web resources and services.